Time;durP1;ratioP1;P1;durP2;ratioP2;P2;SDS_P1;SDS_P2;PMS_P1;PMS_P2;Temp;Humidity;BMP_temperature;BMP_pressure;BME280_temperature;BME280_humidity;BME280_pressure;Samples;Min_cycle;Max_cycle;Signal;HPM_P1;HPM_P2
2022/05/03 00:03:27;;;;;;;9.07;6.77;;;14.40;99.90;;;;;;10357213;28;20742;-73
2022/05/03 00:09:15;;;;;;;12.40;7.17;;;14.30;99.90;;;;;;10350848;28;20233;-72
2022/05/03 00:14:42;;;;;;;15.40;8.13;;;14.20;99.90;;;;;;10313336;28;20221;-71
2022/05/03 00:19:44;;;;;;;20.20;9.50;;;14.20;99.90;;;;;;10354089;28;20228;-72
2022/05/03 00:24:45;;;;;;;27.33;10.73;;;14.10;99.90;;;;;;10339319;28;20222;-71
2022/05/03 00:29:45;;;;;;;14.93;7.73;;;14.00;99.90;;;;;;10333670;28;20239;-71
2022/05/03 00:34:48;;;;;;;12.63;7.60;;;14.10;99.90;;;;;;10363992;28;20217;-71
2022/05/03 00:39:48;;;;;;;8.07;6.80;;;14.10;99.90;;;;;;10359654;28;20271;-71
2022/05/03 00:45:04;;;;;;;8.53;6.40;;;14.10;99.90;;;;;;10351022;28;20279;-73
2022/05/03 00:50:07;;;;;;;9.30;6.40;;;14.10;99.90;;;;;;10361835;28;20224;-72
2022/05/03 00:55:39;;;;;;;15.20;7.93;;;14.10;99.90;;;;;;10355541;28;20178;-72
2022/05/03 01:00:50;;;;;;;12.00;6.97;;;14.10;99.90;;;;;;10360548;28;20855;-71
2022/05/03 01:06:20;;;;;;;9.57;6.17;;;14.10;99.90;;;;;;10341924;28;20711;-71
2022/05/03 01:11:58;;;;;;;8.37;6.53;;;14.00;99.90;;;;;;10353987;28;20241;-72
2022/05/03 01:17:05;;;;;;;9.00;6.70;;;14.00;99.90;;;;;;10365045;28;20217;-72
2022/05/03 01:22:33;;;;;;;9.13;7.13;;;13.90;99.90;;;;;;10360790;28;20216;-72
2022/05/03 01:27:45;;;;;;;8.50;6.80;;;13.90;99.90;;;;;;10357792;28;20726;-70
2022/05/03 01:32:47;;;;;;;8.80;6.83;;;13.90;99.90;;;;;;10345957;28;20210;-72
2022/05/03 01:38:10;;;;;;;9.00;6.63;;;13.80;99.90;;;;;;10344914;28;20598;-71
2022/05/03 01:43:13;;;;;;;8.73;7.33;;;13.90;99.90;;;;;;10354125;28;20225;-71
2022/05/03 01:48:26;;;;;;;20.10;7.83;;;13.80;99.90;;;;;;10360552;28;20225;-71
2022/05/03 01:53:36;;;;;;;11.90;6.77;;;13.80;99.90;;;;;;10347590;28;20563;-70
2022/05/03 01:59:02;;;;;;;8.97;6.93;;;13.80;99.90;;;;;;10360692;28;20213;-72
2022/05/03 02:04:14;;;;;;;8.57;7.00;;;13.70;99.90;;;;;;10329542;28;20221;-71
2022/05/03 02:09:17;;;;;;;9.13;6.80;;;13.70;99.90;;;;;;10356679;28;20862;-70
2022/05/03 02:14:51;;;;;;;9.83;6.90;;;13.70;99.90;;;;;;10345394;28;20321;-70
2022/05/03 02:20:12;;;;;;;11.53;6.70;;;13.60;99.90;;;;;;10344876;28;20284;-70
2022/05/03 02:25:36;;;;;;;8.70;6.97;;;13.60;99.90;;;;;;10344573;28;20233;-70
2022/05/03 02:30:39;;;;;;;6.97;6.27;;;13.50;99.90;;;;;;10348088;28;20226;-71
2022/05/03 02:35:48;;;;;;;9.03;6.77;;;13.40;99.90;;;;;;10357258;28;20731;-71
2022/05/03 02:40:52;;;;;;;7.70;6.83;;;13.30;99.90;;;;;;10339417;28;20304;-70
2022/05/03 02:46:03;;;;;;;9.23;7.37;;;13.40;99.90;;;;;;10330190;28;20218;-71
2022/05/03 02:51:06;;;;;;;9.63;7.20;;;13.20;99.90;;;;;;10350523;28;20245;-71
2022/05/03 02:56:51;;;;;;;9.80;7.07;;;13.30;99.90;;;;;;10333438;28;20221;-71
2022/05/03 03:02:14;;;;;;;10.73;7.77;;;13.30;99.90;;;;;;10334568;28;20706;-71
2022/05/03 03:07:18;;;;;;;10.53;7.37;;;13.20;99.90;;;;;;10350241;28;20225;-71
2022/05/03 03:12:31;;;;;;;8.10;7.27;;;13.20;99.90;;;;;;10352050;28;20229;-71
2022/05/03 03:17:43;;;;;;;7.67;6.87;;;13.10;99.90;;;;;;10350599;28;20213;-71
2022/05/03 03:22:45;;;;;;;9.77;7.77;;;13.10;99.90;;;;;;10352701;28;20701;-72
2022/05/03 03:27:51;;;;;;;11.33;7.93;;;13.00;99.90;;;;;;10365457;28;20728;-72
2022/05/03 03:32:56;;;;;;;9.60;7.17;;;13.00;99.90;;;;;;10353920;28;20214;-71
2022/05/03 03:38:01;;;;;;;8.93;7.27;;;13.00;99.90;;;;;;10340055;28;20198;-71
2022/05/03 03:43:01;;;;;;;8.50;7.70;;;13.00;99.90;;;;;;10363538;28;20218;-72
2022/05/03 03:48:04;;;;;;;7.37;6.67;;;13.00;99.90;;;;;;10360140;28;20226;-70
2022/05/03 03:53:08;;;;;;;10.83;7.40;;;13.00;99.90;;;;;;10352462;28;20280;-71
2022/05/03 03:58:10;;;;;;;9.03;7.20;;;13.00;99.90;;;;;;10358868;28;20214;-72
2022/05/03 04:03:11;;;;;;;11.17;7.87;;;13.00;99.90;;;;;;10339100;28;20260;-71
2022/05/03 04:08:12;;;;;;;9.80;7.77;;;13.20;99.90;;;;;;10357708;28;20217;-72
2022/05/03 04:13:15;;;;;;;8.93;8.03;;;13.10;99.90;;;;;;10341747;28;20575;-72
2022/05/03 04:18:16;;;;;;;9.13;7.93;;;13.10;99.90;;;;;;10370055;28;20220;-73
2022/05/03 04:23:22;;;;;;;9.07;7.80;;;13.20;99.90;;;;;;10358519;28;20228;-71
2022/05/03 04:28:23;;;;;;;12.03;8.77;;;13.20;99.90;;;;;;10367505;28;20247;-71
2022/05/03 04:33:24;;;;;;;9.77;8.53;;;13.20;99.90;;;;;;10349519;28;20276;-71
2022/05/03 04:38:25;;;;;;;11.73;8.77;;;13.20;99.90;;;;;;10372073;28;20213;-71
2022/05/03 04:43:26;;;;;;;14.67;9.07;;;13.20;99.90;;;;;;10350816;28;20228;-71
2022/05/03 04:48:27;;;;;;;13.63;9.27;;;13.20;99.90;;;;;;10345899;28;20804;-71
2022/05/03 04:53:28;;;;;;;19.60;10.40;;;13.30;99.90;;;;;;10364645;28;20316;-72
2022/05/03 04:58:28;;;;;;;12.87;8.97;;;13.30;99.90;;;;;;10362101;28;20293;-71
2022/05/03 05:03:29;;;;;;;18.20;9.40;;;13.30;99.90;;;;;;10349115;28;20643;-72
2022/05/03 05:08:29;;;;;;;14.27;9.20;;;13.30;99.90;;;;;;10361669;28;20225;-71
2022/05/03 05:13:31;;;;;;;14.70;9.63;;;13.30;99.90;;;;;;10356204;28;20213;-71
2022/05/03 05:18:32;;;;;;;14.63;9.07;;;13.40;99.90;;;;;;10363067;28;20295;-69
2022/05/03 05:23:33;;;;;;;15.90;9.17;;;13.40;99.90;;;;;;10358603;28;20313;-69
2022/05/03 05:28:33;;;;;;;11.57;7.97;;;13.40;99.90;;;;;;10364222;28;20594;-69
2022/05/03 05:33:34;;;;;;;13.00;8.80;;;13.50;99.90;;;;;;10364224;28;20236;-69
2022/05/03 05:38:34;;;;;;;10.43;8.60;;;13.60;99.90;;;;;;10364298;28;20252;-69
2022/05/03 05:43:36;;;;;;;10.30;9.23;;;13.70;99.90;;;;;;10363365;28;20814;-69
2022/05/03 05:48:39;;;;;;;13.10;8.83;;;13.80;99.90;;;;;;10361328;28;20240;-69
2022/05/03 05:53:39;;;;;;;13.73;8.43;;;13.90;99.90;;;;;;10358140;28;20673;-70
2022/05/03 05:58:40;;;;;;;12.27;8.60;;;14.00;99.90;;;;;;10360348;28;20286;-70
2022/05/03 06:03:42;;;;;;;10.90;8.47;;;14.10;99.90;;;;;;10343224;28;20229;-70
2022/05/03 06:08:43;;;;;;;15.60;8.67;;;14.10;99.90;;;;;;10359771;28;20834;-70
2022/05/03 06:13:43;;;;;;;12.87;8.77;;;14.30;99.90;;;;;;10359881;28;20327;-69
2022/05/03 06:18:44;;;;;;;19.43;9.67;;;14.50;99.90;;;;;;10349609;28;20230;-69
2022/05/03 06:23:45;;;;;;;10.97;9.00;;;14.70;99.90;;;;;;10352933;28;20942;-71
2022/05/03 06:28:45;;;;;;;13.37;8.87;;;14.80;99.90;;;;;;10361565;28;20228;-69
2022/05/03 06:33:46;;;;;;;13.63;8.83;;;14.90;99.90;;;;;;10360885;28;20221;-70
2022/05/03 06:38:47;;;;;;;11.83;8.77;;;15.00;99.90;;;;;;10343203;28;20305;-70
2022/05/03 06:43:47;;;;;;;15.13;8.03;;;15.10;99.90;;;;;;10342809;28;20651;-70
2022/05/03 06:48:48;;;;;;;11.10;8.10;;;15.20;99.90;;;;;;10366194;28;20674;-70
2022/05/03 06:53:52;;;;;;;14.67;7.63;;;15.50;99.90;;;;;;10338441;28;20233;-70
2022/05/03 06:58:53;;;;;;;8.30;7.20;;;15.60;99.90;;;;;;10349465;28;20316;-70
2022/05/03 07:03:53;;;;;;;17.53;7.50;;;15.80;99.90;;;;;;10362284;28;20728;-70
2022/05/03 07:08:54;;;;;;;11.27;7.37;;;15.70;99.90;;;;;;10349727;28;20239;-69
2022/05/03 07:13:54;;;;;;;9.53;7.23;;;15.90;99.90;;;;;;10365035;28;20304;-69
2022/05/03 07:24:14;;;;;;;10.47;8.40;;;16.30;99.90;;;;;;10373255;28;20660;-69
2022/05/03 07:29:15;;;;;;;9.97;7.60;;;16.30;99.90;;;;;;10355239;28;20229;-70
2022/05/03 07:34:21;;;;;;;16.40;8.20;;;16.70;99.90;;;;;;10363983;28;20635;-71
2022/05/03 07:39:22;;;;;;;9.50;7.37;;;16.90;99.90;;;;;;10367869;28;20250;-72
2022/05/03 07:44:23;;;;;;;11.20;7.17;;;17.20;99.90;;;;;;10365031;28;20323;-70
2022/05/03 07:49:23;;;;;;;9.50;7.13;;;17.40;99.90;;;;;;10374123;28;20219;-70
2022/05/03 07:54:25;;;;;;;10.10;7.57;;;17.50;99.90;;;;;;10374006;28;20238;-71
2022/05/03 07:59:26;;;;;;;8.67;6.73;;;17.60;99.90;;;;;;10362587;28;20330;-70
2022/05/03 08:04:27;;;;;;;11.90;7.33;;;17.90;99.90;;;;;;10332412;28;20316;-70
2022/05/03 08:09:28;;;;;;;9.47;6.90;;;18.40;99.90;;;;;;10332131;28;20231;-70
2022/05/03 08:14:29;;;;;;;8.53;6.57;;;18.90;99.90;;;;;;10359594;28;20231;-71
2022/05/03 08:19:29;;;;;;;11.93;7.37;;;19.50;99.90;;;;;;10349659;28;20225;-70
2022/05/03 08:24:30;;;;;;;9.37;6.60;;;20.20;99.90;;;;;;10350610;28;20222;-71
2022/05/03 08:29:34;;;;;;;9.83;6.47;;;20.90;97.40;;;;;;10340816;28;20780;-71
2022/05/03 08:34:35;;;;;;;8.50;5.80;;;22.60;92.00;;;;;;10360911;28;20628;-70
2022/05/03 08:44:56;;;;;;;8.13;5.73;;;25.30;74.80;;;;;;10351364;28;20226;-71
2022/05/03 08:50:08;;;;;;;9.40;5.87;;;26.90;62.50;;;;;;10357765;28;20230;-70
2022/05/03 08:55:11;;;;;;;7.37;5.07;;;27.70;55.90;;;;;;10355899;28;20292;-71
2022/05/03 09:00:14;;;;;;;7.73;4.70;;;30.70;48.10;;;;;;10348422;28;20233;-72
2022/05/03 09:05:15;;;;;;;7.80;5.80;;;29.90;46.20;;;;;;10355991;28;20182;-70
2022/05/03 09:10:22;;;;;;;6.97;4.93;;;28.80;47.60;;;;;;10348784;28;20218;-70
2022/05/03 09:15:32;;;;;;;7.40;4.93;;;28.50;48.30;;;;;;10355297;28;20189;-70
2022/05/03 09:25:53;;;;;;;6.27;4.47;;;28.30;47.50;;;;;;10359881;28;20252;-70
2022/05/03 09:30:53;;;;;;;5.90;4.07;;;29.40;46.70;;;;;;10358591;28;20233;-70
2022/05/03 09:35:54;;;;;;;6.43;4.57;;;30.40;42.60;;;;;;10334230;28;20743;-69
2022/05/03 09:40:55;;;;;;;7.60;4.27;;;29.40;44.20;;;;;;10340829;28;20636;-71
2022/05/03 09:46:05;;;;;;;7.17;5.27;;;29.40;44.50;;;;;;10352285;28;20225;-70
2022/05/03 09:51:15;;;;;;;6.60;4.10;;;28.10;46.40;;;;;;10346993;28;20327;-71
2022/05/03 09:56:16;;;;;;;8.47;4.70;;;28.60;46.30;;;;;;10328948;28;20664;-70
2022/05/03 10:01:17;;;;;;;6.00;4.87;;;28.20;47.10;;;;;;10353007;28;20237;-70
2022/05/03 10:06:21;;;;;;;8.00;4.83;;;28.50;46.20;;;;;;10350480;28;20224;-71
2022/05/03 10:11:26;;;;;;;7.07;4.80;;;29.30;45.90;;;;;;10345023;28;20293;-70
2022/05/03 10:21:54;;;;;;;6.87;4.40;;;34.80;36.70;;;;;;10353795;28;20248;-69
2022/05/03 10:27:02;;;;;;;5.13;4.30;;;32.80;39.70;;;;;;10344812;28;20229;-69
2022/05/03 10:32:05;;;;;;;6.60;5.23;;;33.60;37.90;;;;;;10352811;28;20683;-69
2022/05/03 10:37:17;;;;;;;6.43;5.73;;;32.60;37.50;;;;;;10346123;28;20218;-69
2022/05/03 10:42:23;;;;;;;6.73;5.27;;;29.80;42.40;;;;;;10334000;28;20279;-71
2022/05/03 10:47:43;;;;;;;7.30;5.27;;;29.00;45.00;;;;;;10350476;28;20225;-71
2022/05/03 10:52:54;;;;;;;7.93;5.30;;;30.20;43.20;;;;;;10330076;28;20243;-70
2022/05/03 10:58:19;;;;;;;6.63;4.97;;;31.20;40.90;;;;;;10347310;28;20261;-70
2022/05/03 11:03:21;;;;;;;6.77;5.13;;;32.10;39.80;;;;;;10369793;28;20228;-68
2022/05/03 11:08:22;;;;;;;6.87;4.70;;;33.80;36.30;;;;;;10346870;28;20380;-69
2022/05/03 11:13:39;;;;;;;6.43;4.03;;;32.80;37.00;;;;;;10346200;28;20304;-69
2022/05/03 11:18:42;;;;;;;9.13;4.70;;;34.40;36.20;;;;;;10358683;28;20213;-69
2022/05/03 11:23:54;;;;;;;8.03;4.47;;;34.50;34.60;;;;;;10342767;28;20314;-70
2022/05/03 11:29:01;;;;;;;5.83;4.47;;;33.50;35.40;;;;;;10347954;28;20309;-70
2022/05/03 11:34:06;;;;;;;7.00;3.37;;;33.20;35.50;;;;;;10358502;28;20231;-69
2022/05/03 11:39:08;;;;;;;5.17;3.60;;;33.30;35.90;;;;;;10366837;28;20355;-69
2022/05/03 11:44:09;;;;;;;6.83;4.20;;;32.90;35.30;;;;;;10355128;28;20233;-69
2022/05/03 11:49:13;;;;;;;3.77;3.43;;;30.50;38.20;;;;;;10361905;28;20279;-70
2022/05/03 11:59:45;;;;;;;5.13;4.10;;;27.30;44.50;;;;;;10353647;28;20235;-70
2022/05/03 12:05:04;;;;;;;5.63;3.93;;;26.00;46.60;;;;;;10359350;28;20223;-70
2022/05/03 12:10:23;;;;;;;9.80;4.53;;;25.50;47.20;;;;;;10352464;28;20240;-70
2022/05/03 12:15:24;;;;;;;5.13;4.50;;;24.90;49.80;;;;;;10333638;28;20202;-70
2022/05/03 12:20:25;;;;;;;5.67;5.07;;;24.50;50.40;;;;;;10363171;28;20308;-70
2022/05/03 12:25:27;;;;;;;11.77;5.70;;;24.30;50.40;;;;;;10350979;28;20213;-70
2022/05/03 12:30:27;;;;;;;9.33;4.97;;;24.20;51.20;;;;;;10357371;28;20283;-70
2022/05/03 12:35:33;;;;;;;5.53;4.40;;;23.90;52.70;;;;;;10349855;28;20301;-70
2022/05/03 12:40:46;;;;;;;6.40;5.20;;;23.90;51.80;;;;;;10360144;28;20225;-72
2022/05/03 12:46:02;;;;;;;6.33;4.37;;;23.70;51.70;;;;;;10357267;28;20224;-71
2022/05/03 12:51:04;;;;;;;4.47;4.03;;;23.80;52.10;;;;;;10362706;28;20220;-71
2022/05/03 13:01:24;;;;;;;4.90;4.40;;;23.60;51.60;;;;;;10348625;28;20233;-70
2022/05/03 13:06:25;;;;;;;5.13;3.97;;;23.50;50.90;;;;;;10349275;28;20793;-72
2022/05/03 13:11:26;;;;;;;7.20;4.67;;;23.70;51.00;;;;;;10353676;28;20271;-72
2022/05/03 13:16:27;;;;;;;6.73;4.30;;;23.80;50.70;;;;;;10330464;28;20268;-71
2022/05/03 13:21:28;;;;;;;6.40;4.43;;;23.50;51.10;;;;;;10371484;28;20225;-70
2022/05/03 13:26:31;;;;;;;5.83;4.50;;;23.60;50.70;;;;;;10345349;28;20641;-70
2022/05/03 13:31:32;;;;;;;4.20;3.80;;;23.40;50.70;;;;;;10349288;28;20229;-69
2022/05/03 13:41:51;;;;;;;4.40;3.90;;;23.80;50.10;;;;;;10359421;28;20229;-70
2022/05/03 13:46:53;;;;;;;5.43;4.23;;;23.50;49.70;;;;;;10352083;28;20321;-69
2022/05/03 13:51:53;;;;;;;5.00;4.47;;;23.60;51.70;;;;;;10350065;28;20233;-74
2022/05/03 13:56:54;;;;;;;7.83;4.03;;;23.90;50.20;;;;;;10345073;28;20229;-69
2022/05/03 14:01:55;;;;;;;5.27;4.17;;;23.80;48.70;;;;;;10354989;28;20859;-69
2022/05/03 14:06:56;;;;;;;4.40;4.00;;;23.80;49.10;;;;;;10347651;28;20268;-69
2022/05/03 14:11:58;;;;;;;7.00;4.73;;;23.80;48.10;;;;;;10349981;28;20232;-69
2022/05/03 14:16:58;;;;;;;3.83;3.47;;;23.80;49.00;;;;;;10347890;28;20222;-70
2022/05/03 14:22:00;;;;;;;4.83;3.90;;;23.90;49.10;;;;;;10349505;28;20221;-70
2022/05/03 14:27:01;;;;;;;5.53;4.60;;;24.10;48.20;;;;;;10329414;28;20230;-69
2022/05/03 14:32:02;;;;;;;7.07;4.63;;;24.10;49.10;;;;;;10344670;28;20218;-70
2022/05/03 14:37:03;;;;;;;9.17;5.13;;;23.90;49.80;;;;;;10350194;28;20221;-69
2022/05/03 14:42:05;;;;;;;7.93;4.40;;;23.80;50.90;;;;;;10363363;28;20217;-71
2022/05/03 14:47:07;;;;;;;5.23;4.83;;;23.90;50.90;;;;;;10345174;28;20222;-71
2022/05/03 14:52:11;;;;;;;6.30;4.80;;;23.70;50.60;;;;;;10356385;28;20217;-71
2022/05/03 15:07:55;;;;;;;6.80;5.27;;;23.70;51.20;;;;;;10351795;28;20221;-69
2022/05/03 15:12:58;;;;;;;10.73;4.33;;;23.70;51.40;;;;;;10355324;28;20226;-70
2022/05/03 15:18:00;;;;;;;9.27;4.70;;;24.10;52.00;;;;;;10361928;28;20739;-70
2022/05/03 15:28:24;;;;;;;10.60;4.80;;;24.20;50.40;;;;;;10366573;28;20221;-70
2022/05/03 15:33:25;;;;;;;6.97;4.87;;;23.80;53.20;;;;;;10358656;28;20727;-71
2022/05/03 15:38:26;;;;;;;9.17;4.30;;;22.90;55.20;;;;;;10350579;28;20233;-71
2022/05/03 15:43:27;;;;;;;6.77;4.20;;;22.40;57.00;;;;;;10347781;28;20221;-71
2022/05/03 15:48:28;;;;;;;5.00;3.97;;;22.00;57.00;;;;;;10350318;28;20253;-72
2022/05/03 15:53:29;;;;;;;5.40;4.07;;;21.50;57.40;;;;;;10357379;28;20233;-72
2022/05/03 15:58:32;;;;;;;4.50;4.07;;;21.20;58.20;;;;;;10349892;28;20225;-72
2022/05/03 16:03:34;;;;;;;5.70;3.90;;;20.90;58.90;;;;;;10343951;28;20759;-71
2022/05/03 16:08:34;;;;;;;7.87;4.27;;;21.10;58.60;;;;;;10356170;28;20228;-71
2022/05/03 16:13:35;;;;;;;7.23;3.97;;;21.00;58.60;;;;;;10341980;28;20218;-71
2022/05/03 16:18:36;;;;;;;5.47;3.73;;;21.00;58.90;;;;;;10355633;28;20225;-72
2022/05/03 16:23:37;;;;;;;5.23;4.20;;;21.00;59.00;;;;;;10334660;28;20253;-72
2022/05/03 16:28:37;;;;;;;6.17;4.50;;;21.10;59.10;;;;;;10354347;28;20251;-71
2022/05/03 16:33:42;;;;;;;8.63;4.50;;;21.20;59.20;;;;;;10359652;28;20244;-72
2022/05/03 16:44:01;;;;;;;5.80;4.30;;;21.30;58.20;;;;;;10354907;28;20213;-72
2022/05/03 16:49:03;;;;;;;5.93;4.50;;;21.20;58.70;;;;;;10330562;28;20325;-70
2022/05/03 16:54:04;;;;;;;6.53;4.67;;;21.40;58.60;;;;;;10363094;28;20285;-70
2022/05/03 16:59:07;;;;;;;5.68;4.65;;;21.30;58.30;;;;;;10347060;28;20875;-71
2022/05/03 17:04:08;;;;;;;7.10;4.30;;;21.30;58.70;;;;;;10340801;28;20214;-70
2022/05/03 17:09:09;;;;;;;8.07;5.00;;;21.30;58.70;;;;;;10357246;28;20750;-71
2022/05/03 17:14:12;;;;;;;6.10;4.33;;;21.20;58.30;;;;;;10338765;28;20213;-71
2022/05/03 17:19:13;;;;;;;4.30;3.90;;;21.10;58.80;;;;;;10337534;28;20848;-71
2022/05/03 17:24:14;;;;;;;6.40;3.90;;;21.10;57.50;;;;;;10362069;28;20221;-71
2022/05/03 17:29:14;;;;;;;5.10;4.03;;;21.00;56.80;;;;;;10351523;28;20221;-71
2022/05/03 17:34:15;;;;;;;7.10;4.07;;;21.00;57.40;;;;;;10344786;28;20218;-70
2022/05/03 17:39:16;;;;;;;5.73;4.27;;;20.90;56.60;;;;;;10344439;28;20216;-70
2022/05/03 17:44:17;;;;;;;5.10;3.70;;;20.90;56.50;;;;;;10353251;28;20239;-69
2022/05/03 17:49:32;;;;;;;4.73;3.60;;;20.80;57.30;;;;;;10363562;28;20236;-71
2022/05/03 17:54:33;;;;;;;4.30;3.63;;;20.70;57.70;;;;;;10337907;28;20872;-71
2022/05/03 17:59:35;;;;;;;4.83;3.70;;;20.60;58.60;;;;;;10343771;28;20376;-72
2022/05/03 18:04:35;;;;;;;6.47;3.87;;;20.40;58.70;;;;;;10353428;28;20221;-71
2022/05/03 18:09:36;;;;;;;6.13;4.00;;;20.30;59.60;;;;;;10348310;28;20224;-71
2022/05/03 18:14:36;;;;;;;5.60;4.40;;;20.20;60.20;;;;;;10369060;28;20723;-71
2022/05/03 18:19:40;;;;;;;10.27;4.50;;;20.00;60.30;;;;;;10348528;28;20217;-71
2022/05/03 18:24:41;;;;;;;5.87;4.23;;;19.90;61.20;;;;;;10352472;28;20227;-72
2022/05/03 18:29:42;;;;;;;5.50;4.00;;;19.70;62.20;;;;;;10355511;28;20231;-72
2022/05/03 18:34:43;;;;;;;7.77;4.83;;;19.70;63.40;;;;;;10337270;28;20307;-72
2022/05/03 18:39:44;;;;;;;9.50;5.60;;;19.50;64.00;;;;;;10352318;28;20226;-71
2022/05/03 18:44:44;;;;;;;6.93;5.23;;;19.40;64.90;;;;;;10349802;28;20235;-71
2022/05/03 18:49:46;;;;;;;6.03;4.80;;;19.30;65.30;;;;;;10357682;28;20243;-71
2022/05/03 19:00:15;;;;;;;6.43;4.60;;;19.20;67.30;;;;;;10369073;28;20225;-71
2022/05/03 19:05:16;;;;;;;8.33;5.23;;;19.10;67.30;;;;;;10365583;28;20250;-71
2022/05/03 19:10:18;;;;;;;13.13;10.20;;;19.00;67.80;;;;;;10370127;28;20567;-72
2022/05/03 19:15:19;;;;;;;8.83;5.37;;;18.90;67.40;;;;;;10371728;28;20181;-70
2022/05/03 19:20:21;;;;;;;7.70;4.47;;;18.90;68.30;;;;;;10361685;28;20196;-71
2022/05/03 19:30:41;;;;;;;7.63;5.10;;;18.70;69.40;;;;;;10371530;28;20232;-70
2022/05/03 19:35:44;;;;;;;7.80;4.47;;;18.60;69.90;;;;;;10362967;28;20225;-70
2022/05/03 19:40:47;;;;;;;5.73;4.23;;;18.50;70.20;;;;;;10361885;28;20228;-71
2022/05/03 19:45:49;;;;;;;5.90;4.13;;;18.40;70.90;;;;;;10356845;28;20227;-70
2022/05/03 19:50:49;;;;;;;7.53;4.50;;;18.30;72.00;;;;;;10368028;28;20246;-70
2022/05/03 19:55:50;;;;;;;6.57;5.13;;;18.30;72.90;;;;;;10342067;28;20712;-71
2022/05/03 20:00:51;;;;;;;8.77;5.63;;;18.20;72.90;;;;;;10368254;28;20243;-71
2022/05/03 20:05:56;;;;;;;7.03;5.10;;;18.20;72.00;;;;;;10348612;28;20234;-71
2022/05/03 20:10:58;;;;;;;6.80;4.60;;;18.10;72.30;;;;;;10349665;28;20647;-71
2022/05/03 20:16:00;;;;;;;4.17;3.73;;;18.10;72.40;;;;;;10370274;28;20283;-70
2022/05/03 20:21:10;;;;;;;4.00;3.70;;;18.00;72.00;;;;;;10355411;28;20714;-71
2022/05/03 20:26:13;;;;;;;4.97;4.20;;;18.00;72.10;;;;;;10371929;28;20251;-72
2022/05/03 20:31:14;;;;;;;8.80;8.00;;;17.90;71.60;;;;;;10361215;28;20609;-71
2022/05/03 20:36:15;;;;;;;7.10;4.80;;;17.80;72.60;;;;;;10358600;28;20313;-72
2022/05/03 20:41:15;;;;;;;5.60;4.53;;;17.70;73.60;;;;;;10349523;28;20240;-71
2022/05/03 20:51:35;;;;;;;9.57;8.30;;;17.40;76.90;;;;;;10366021;28;20238;-72
2022/05/03 20:56:36;;;;;;;8.80;7.27;;;17.40;80.70;;;;;;10357537;28;20227;-71
2022/05/03 21:01:37;;;;;;;8.40;7.47;;;17.30;81.30;;;;;;10361808;28;20235;-71
2022/05/03 21:06:37;;;;;;;8.17;5.00;;;17.30;81.60;;;;;;10361549;28;20309;-72
2022/05/03 21:11:39;;;;;;;9.67;8.33;;;17.20;83.70;;;;;;10381970;28;20233;-72
2022/05/03 21:16:39;;;;;;;9.47;8.07;;;17.00;84.40;;;;;;10361924;28;20221;-71
2022/05/03 21:21:44;;;;;;;6.77;5.33;;;16.90;85.80;;;;;;10368086;28;20258;-71
2022/05/03 21:26:44;;;;;;;8.83;4.93;;;16.70;87.60;;;;;;10361797;28;20703;-71
2022/05/03 21:31:45;;;;;;;7.47;6.10;;;16.60;89.90;;;;;;10369289;28;20238;-72
2022/05/03 21:36:46;;;;;;;7.77;6.97;;;16.50;91.00;;;;;;10349142;28;20259;-70
2022/05/03 21:41:47;;;;;;;10.43;8.77;;;16.40;91.90;;;;;;10364738;28;20220;-70
2022/05/03 21:46:47;;;;;;;9.53;7.77;;;16.20;92.60;;;;;;10354765;28;20232;-71
2022/05/03 21:51:49;;;;;;;7.50;5.27;;;16.00;94.50;;;;;;10371608;28;20226;-70
2022/05/03 21:56:50;;;;;;;6.60;6.00;;;15.90;96.30;;;;;;10342733;28;20555;-70
2022/05/03 22:01:50;;;;;;;8.40;5.47;;;15.70;99.30;;;;;;10350540;28;20237;-69
2022/05/03 22:06:52;;;;;;;6.70;5.90;;;15.70;99.90;;;;;;10367420;28;20270;-72
2022/05/03 22:11:52;;;;;;;12.43;10.90;;;15.70;99.90;;;;;;10360668;28;20239;-71
2022/05/03 22:16:54;;;;;;;8.60;6.43;;;15.70;99.90;;;;;;10342716;28;20242;-71
2022/05/03 22:21:56;;;;;;;13.47;6.57;;;15.80;99.90;;;;;;10368026;28;20348;-71
2022/05/03 22:26:57;;;;;;;9.53;6.63;;;16.00;99.90;;;;;;10359729;28;20233;-72
2022/05/03 22:31:57;;;;;;;7.23;6.03;;;16.10;99.90;;;;;;10370041;28;20239;-71
2022/05/03 22:36:58;;;;;;;8.30;6.93;;;16.20;99.90;;;;;;10367262;28;20224;-71
2022/05/03 22:41:58;;;;;;;7.23;6.47;;;16.20;99.90;;;;;;10358584;28;20309;-72
2022/05/03 22:46:59;;;;;;;8.67;7.63;;;16.20;99.90;;;;;;10346009;28;20741;-72
2022/05/03 22:52:00;;;;;;;10.00;7.27;;;16.20;99.90;;;;;;10351798;28;20236;-71
2022/05/03 22:57:04;;;;;;;7.00;6.00;;;16.00;99.90;;;;;;10352296;28;20768;-71
2022/05/03 23:02:04;;;;;;;9.40;7.37;;;15.90;99.90;;;;;;10353887;28;20221;-72
2022/05/03 23:07:05;;;;;;;7.60;6.90;;;15.80;99.90;;;;;;10348161;28;20226;-72
2022/05/03 23:12:06;;;;;;;8.77;7.83;;;15.60;99.90;;;;;;10358906;28;20504;-72
2022/05/03 23:17:10;;;;;;;8.23;7.30;;;15.40;99.90;;;;;;10355747;28;20225;-71
2022/05/03 23:22:10;;;;;;;8.20;6.87;;;15.30;99.90;;;;;;10362318;28;20232;-71
2022/05/03 23:27:11;;;;;;;8.10;7.30;;;15.10;99.90;;;;;;10359729;28;20216;-71
2022/05/03 23:32:12;;;;;;;7.87;6.77;;;15.00;99.90;;;;;;10350719;28;20240;-71
2022/05/03 23:37:12;;;;;;;7.03;6.27;;;14.90;99.90;;;;;;10365379;28;20245;-71
2022/05/03 23:42:14;;;;;;;9.00;7.00;;;14.70;99.90;;;;;;10349462;28;20221;-70
2022/05/03 23:47:15;;;;;;;8.70;7.40;;;14.70;99.90;;;;;;10350263;28;20346;-70
2022/05/03 23:52:15;;;;;;;9.53;7.63;;;14.90;99.90;;;;;;10358870;28;20306;-70
2022/05/03 23:57:16;;;;;;;8.03;7.17;;;14.90;99.90;;;;;;10367917;28;20240;-70
